Terminal Aerodrome Forecast
Issued by NWS Shreveport, LA

Home | Current Version | Previous Version | Text Only | Print | Product List | Glossary On
Versions: 1 2 3 4 5 6 7 8 9 10 11 12
000
FTUS44 KSHV 110520
TAFTXK
TAF
KTXK 110520Z 1106/1206 23005KT P6SM SKC
     FM111500 24010KT P6SM FEW250
     FM120000 26010KT P6SM SCT250
     FM120500 33010KT P6SM SCT250=

USA.gov is the U.S. government's official web portal to all federal, state and local government web resources and services.